Capt Amer — 3FCQ3 — position and weather

sailwx.info

Track history (hours):
 
Tides and Currents Weather Stations Pressure Air Temp Water Temp Dewpoint Dewpoint Depression Visibility Wind Speed Wind Dir Waves Ship Positions

Capt Amer

Last reported at 2016-Apr-28 21:33 UTC. Time now 2016-Apr-28 21:49 UTC.
Position N 38°04' E 020°59'.

Length 113 m; draft 5.1 m.

Type: Cargo ship. MMSI: 373175000.

Date/timePositionNaut miles runAvg speedWind from/ knotsBaromVisibWave heightAir tempDewpointWater temp
2016-Apr-28 21:33N 38°04' E 020°59'1313.3
2016-Apr-28 20:32N 37°59' E 020°43'1313.0
2016-Apr-28 19:33N 37°57' E 020°27'1312.8
2016-Apr-28 18:33N 37°53' E 020°11'1313.0
2016-Apr-28 17:33N 37°49' E 019°55'16013.2
2016-Apr-28 05:27N 36°59' E 016°44'1213.4
2016-Apr-28 04:33N 36°56' E 016°29'2713.0
2016-Apr-28 02:30N 36°48' E 015°57'3913.1
2016-Apr-27 23:33N 36°35' E 015°11'1312.7
2016-Apr-27 22:33N 36°34' E 014°56'1313.3
2016-Apr-27 21:34N 36°37' E 014°40'1313.3
2016-Apr-27 20:33N 36°41' E 014°24'1313.3
2016-Apr-27 19:33N 36°44' E 014°07'1313.2
2016-Apr-27 18:34N 36°47' E 013°52'1312.8
2016-Apr-27 17:34N 36°50' E 013°36'1312.9
2016-Apr-27 16:33N 36°53' E 013°20'1912.9
2016-Apr-27 15:07N 36°58' E 012°58'713.1
2016-Apr-27 14:33N 36°59' E 012°49'  
Track history (hours):
 
Tides and Currents Weather Stations Pressure Air Temp Water Temp Dewpoint Dewpoint Depression Visibility Wind Speed Wind Dir Waves Ship Positions

Capt Amer

Last reported at 2016-Apr-28 21:33 UTC. Time now 2016-Apr-28 21:49 UTC.
Position N 38°04' E 020°59'.

Length 113 m; draft 5.1 m.

Type: Cargo ship. MMSI: 373175000.

Date/timePositionNaut miles runAvg speedWind from/ knotsBaromVisibWave heightAir tempDewpointWater temp
2016-Apr-28 21:33N 38°04' E 020°59'1313.3
2016-Apr-28 20:32N 37°59' E 020°43'1313.0
2016-Apr-28 19:33N 37°57' E 020°27'1312.8
2016-Apr-28 18:33N 37°53' E 020°11'1313.0
2016-Apr-28 17:33N 37°49' E 019°55'16013.2
2016-Apr-28 05:27N 36°59' E 016°44'1213.4
2016-Apr-28 04:33N 36°56' E 016°29'2713.0
2016-Apr-28 02:30N 36°48' E 015°57'3913.1
2016-Apr-27 23:33N 36°35' E 015°11'1312.7
2016-Apr-27 22:33N 36°34' E 014°56'1313.3
2016-Apr-27 21:34N 36°37' E 014°40'1313.3
2016-Apr-27 20:33N 36°41' E 014°24'1313.3
2016-Apr-27 19:33N 36°44' E 014°07'1313.2
2016-Apr-27 18:34N 36°47' E 013°52'1312.8
2016-Apr-27 17:34N 36°50' E 013°36'1312.9
2016-Apr-27 16:33N 36°53' E 013°20'1912.9
2016-Apr-27 15:07N 36°58' E 012°58'713.1
2016-Apr-27 14:33N 36°59' E 012°49'  

Dump ship's entire track history